sensor_id;sensor_type;location;lat;lon;timestamp;P1;durP1;ratioP1;P2;durP2;ratioP2
1785;SDS011;890;48.158;11.540;2023-05-07T00:00:36;9.93;;;8.93;;
1785;SDS011;890;48.158;11.540;2023-05-07T00:03:02;11.77;;;8.47;;
1785;SDS011;890;48.158;11.540;2023-05-07T00:05:28;10.73;;;9.23;;
1785;SDS011;890;48.158;11.540;2023-05-07T00:07:53;9.27;;;8.30;;
1785;SDS011;890;48.158;11.540;2023-05-07T00:10:19;9.00;;;8.10;;
1785;SDS011;890;48.158;11.540;2023-05-07T00:12:44;10.93;;;8.83;;
1785;SDS011;890;48.158;11.540;2023-05-07T00:15:10;10.20;;;9.20;;
1785;SDS011;890;48.158;11.540;2023-05-07T00:17:36;10.57;;;9.23;;
1785;SDS011;890;48.158;11.540;2023-05-07T00:20:03;9.87;;;8.87;;
1785;SDS011;890;48.158;11.540;2023-05-07T00:22:29;11.47;;;10.37;;
1785;SDS011;890;48.158;11.540;2023-05-07T00:24:56;11.93;;;9.50;;
1785;SDS011;890;48.158;11.540;2023-05-07T00:27:21;10.10;;;9.20;;
1785;SDS011;890;48.158;11.540;2023-05-07T00:29:47;16.60;;;11.23;;
1785;SDS011;890;48.158;11.540;2023-05-07T00:32:13;10.90;;;9.80;;
1785;SDS011;890;48.158;11.540;2023-05-07T00:34:39;9.80;;;8.83;;
1785;SDS011;890;48.158;11.540;2023-05-07T00:37:04;10.37;;;9.33;;
1785;SDS011;890;48.158;11.540;2023-05-07T00:39:32;10.30;;;9.30;;
1785;SDS011;890;48.158;11.540;2023-05-07T00:41:58;10.53;;;9.43;;
1785;SDS011;890;48.158;11.540;2023-05-07T00:44:24;10.90;;;9.80;;
1785;SDS011;890;48.158;11.540;2023-05-07T00:46:50;11.83;;;10.10;;
1785;SDS011;890;48.158;11.540;2023-05-07T00:49:16;11.63;;;10.43;;
1785;SDS011;890;48.158;11.540;2023-05-07T00:51:42;11.00;;;10.00;;
1785;SDS011;890;48.158;11.540;2023-05-07T00:54:07;11.60;;;10.40;;
1785;SDS011;890;48.158;11.540;2023-05-07T00:56:34;11.47;;;10.37;;
1785;SDS011;890;48.158;11.540;2023-05-07T00:59:01;11.20;;;10.03;;
1785;SDS011;890;48.158;11.540;2023-05-07T01:01:27;14.97;;;10.70;;
1785;SDS011;890;48.158;11.540;2023-05-07T01:03:53;10.90;;;9.80;;
1785;SDS011;890;48.158;11.540;2023-05-07T01:06:19;11.30;;;10.17;;
1785;SDS011;890;48.158;11.540;2023-05-07T01:08:46;11.70;;;9.70;;
1785;SDS011;890;48.158;11.540;2023-05-07T01:11:15;10.77;;;9.67;;
1785;SDS011;890;48.158;11.540;2023-05-07T01:13:42;12.47;;;10.03;;
1785;SDS011;890;48.158;11.540;2023-05-07T01:16:08;10.83;;;9.70;;
1785;SDS011;890;48.158;11.540;2023-05-07T01:18:34;11.00;;;9.90;;
1785;SDS011;890;48.158;11.540;2023-05-07T01:21:00;10.20;;;9.20;;
1785;SDS011;890;48.158;11.540;2023-05-07T01:23:28;12.20;;;10.50;;
1785;SDS011;890;48.158;11.540;2023-05-07T01:25:55;14.03;;;9.97;;
1785;SDS011;890;48.158;11.540;2023-05-07T01:28:21;10.80;;;9.70;;
1785;SDS011;890;48.158;11.540;2023-05-07T01:30:48;10.90;;;9.77;;
1785;SDS011;890;48.158;11.540;2023-05-07T01:33:18;12.13;;;10.60;;
1785;SDS011;890;48.158;11.540;2023-05-07T01:35:47;12.27;;;10.20;;
1785;SDS011;890;48.158;11.540;2023-05-07T01:38:16;11.00;;;9.90;;
1785;SDS011;890;48.158;11.540;2023-05-07T01:40:42;14.00;;;11.77;;
1785;SDS011;890;48.158;11.540;2023-05-07T01:43:08;12.40;;;11.30;;
1785;SDS011;890;48.158;11.540;2023-05-07T01:45:35;11.53;;;10.30;;
1785;SDS011;890;48.158;11.540;2023-05-07T01:48:01;12.50;;;10.70;;
1785;SDS011;890;48.158;11.540;2023-05-07T01:50:27;11.87;;;10.20;;
1785;SDS011;890;48.158;11.540;2023-05-07T01:52:54;11.87;;;10.67;;
1785;SDS011;890;48.158;11.540;2023-05-07T01:55:20;11.27;;;10.17;;
1785;SDS011;890;48.158;11.540;2023-05-07T01:57:46;10.90;;;9.80;;
1785;SDS011;890;48.158;11.540;2023-05-07T02:00:12;12.30;;;11.10;;
1785;SDS011;890;48.158;11.540;2023-05-07T02:02:38;11.17;;;10.03;;
1785;SDS011;890;48.158;11.540;2023-05-07T02:05:03;8.23;;;7.37;;
1785;SDS011;890;48.158;11.540;2023-05-07T02:07:29;10.97;;;9.67;;
1785;SDS011;890;48.158;11.540;2023-05-07T02:09:55;10.93;;;9.83;;
1785;SDS011;890;48.158;11.540;2023-05-07T02:12:21;11.10;;;10.10;;
1785;SDS011;890;48.158;11.540;2023-05-07T02:14:47;11.40;;;9.93;;
1785;SDS011;890;48.158;11.540;2023-05-07T02:17:13;11.17;;;10.07;;
1785;SDS011;890;48.158;11.540;2023-05-07T02:19:38;10.40;;;9.50;;
1785;SDS011;890;48.158;11.540;2023-05-07T02:22:04;10.23;;;9.23;;
1785;SDS011;890;48.158;11.540;2023-05-07T02:24:30;11.00;;;9.73;;
1785;SDS011;890;48.158;11.540;2023-05-07T02:26:55;10.57;;;9.57;;
1785;SDS011;890;48.158;11.540;2023-05-07T02:29:21;14.03;;;10.23;;
1785;SDS011;890;48.158;11.540;2023-05-07T02:31:46;11.10;;;9.40;;
1785;SDS011;890;48.158;11.540;2023-05-07T02:34:15;12.10;;;10.80;;
1785;SDS011;890;48.158;11.540;2023-05-07T02:36:41;12.47;;;10.40;;
1785;SDS011;890;48.158;11.540;2023-05-07T02:39:07;11.67;;;10.57;;
1785;SDS011;890;48.158;11.540;2023-05-07T02:41:33;10.47;;;9.40;;
1785;SDS011;890;48.158;11.540;2023-05-07T02:43:58;10.67;;;9.60;;
1785;SDS011;890;48.158;11.540;2023-05-07T02:46:24;10.53;;;9.43;;
1785;SDS011;890;48.158;11.540;2023-05-07T02:48:50;11.00;;;9.63;;
1785;SDS011;890;48.158;11.540;2023-05-07T02:51:17;11.00;;;10.00;;
1785;SDS011;890;48.158;11.540;2023-05-07T02:53:44;10.73;;;9.57;;
1785;SDS011;890;48.158;11.540;2023-05-07T02:56:10;10.73;;;9.70;;
1785;SDS011;890;48.158;11.540;2023-05-07T02:58:36;11.00;;;10.00;;
1785;SDS011;890;48.158;11.540;2023-05-07T03:01:04;11.00;;;9.83;;
1785;SDS011;890;48.158;11.540;2023-05-07T03:03:30;10.27;;;9.30;;
1785;SDS011;890;48.158;11.540;2023-05-07T03:05:55;12.13;;;9.37;;
1785;SDS011;890;48.158;11.540;2023-05-07T03:08:21;12.10;;;9.57;;
1785;SDS011;890;48.158;11.540;2023-05-07T03:10:47;10.60;;;9.70;;
1785;SDS011;890;48.158;11.540;2023-05-07T03:13:12;10.17;;;9.20;;
1785;SDS011;890;48.158;11.540;2023-05-07T03:15:38;11.10;;;10.00;;
1785;SDS011;890;48.158;11.540;2023-05-07T03:18:03;10.90;;;9.63;;
1785;SDS011;890;48.158;11.540;2023-05-07T03:20:29;10.37;;;9.27;;
1785;SDS011;890;48.158;11.540;2023-05-07T03:22:55;10.33;;;9.17;;
1785;SDS011;890;48.158;11.540;2023-05-07T03:25:21;11.03;;;9.43;;
1785;SDS011;890;48.158;11.540;2023-05-07T03:27:46;10.53;;;9.30;;
1785;SDS011;890;48.158;11.540;2023-05-07T03:30:12;11.67;;;8.50;;
1785;SDS011;890;48.158;11.540;2023-05-07T03:32:38;9.97;;;8.83;;
1785;SDS011;890;48.158;11.540;2023-05-07T03:35:03;10.83;;;9.83;;
1785;SDS011;890;48.158;11.540;2023-05-07T03:37:29;10.57;;;8.97;;
1785;SDS011;890;48.158;11.540;2023-05-07T03:39:55;9.40;;;8.50;;
1785;SDS011;890;48.158;11.540;2023-05-07T03:42:20;9.70;;;8.80;;
1785;SDS011;890;48.158;11.540;2023-05-07T03:44:46;9.70;;;8.73;;
1785;SDS011;890;48.158;11.540;2023-05-07T03:47:12;9.30;;;8.33;;
1785;SDS011;890;48.158;11.540;2023-05-07T03:49:38;10.33;;;9.23;;
1785;SDS011;890;48.158;11.540;2023-05-07T03:52:04;9.70;;;8.83;;
1785;SDS011;890;48.158;11.540;2023-05-07T03:54:30;10.33;;;9.17;;
1785;SDS011;890;48.158;11.540;2023-05-07T03:56:56;10.33;;;9.33;;
1785;SDS011;890;48.158;11.540;2023-05-07T03:59:21;9.97;;;9.17;;
1785;SDS011;890;48.158;11.540;2023-05-07T04:01:47;10.83;;;9.83;;
1785;SDS011;890;48.158;11.540;2023-05-07T04:04:13;10.30;;;9.37;;
1785;SDS011;890;48.158;11.540;2023-05-07T04:06:39;10.37;;;9.43;;
1785;SDS011;890;48.158;11.540;2023-05-07T04:09:05;9.87;;;8.97;;
1785;SDS011;890;48.158;11.540;2023-05-07T04:11:31;10.57;;;9.43;;
1785;SDS011;890;48.158;11.540;2023-05-07T04:13:57;10.40;;;9.40;;
1785;SDS011;890;48.158;11.540;2023-05-07T04:16:22;9.60;;;8.70;;
1785;SDS011;890;48.158;11.540;2023-05-07T04:18:48;9.67;;;8.77;;
1785;SDS011;890;48.158;11.540;2023-05-07T04:21:17;9.87;;;8.97;;
1785;SDS011;890;48.158;11.540;2023-05-07T04:23:43;11.47;;;10.37;;
1785;SDS011;890;48.158;11.540;2023-05-07T04:26:09;10.07;;;9.10;;
1785;SDS011;890;48.158;11.540;2023-05-07T04:28:35;9.93;;;8.90;;
1785;SDS011;890;48.158;11.540;2023-05-07T04:31:01;10.57;;;9.40;;
1785;SDS011;890;48.158;11.540;2023-05-07T04:33:26;9.13;;;8.27;;
1785;SDS011;890;48.158;11.540;2023-05-07T04:35:52;9.90;;;9.00;;
1785;SDS011;890;48.158;11.540;2023-05-07T04:38:17;9.50;;;8.60;;
1785;SDS011;890;48.158;11.540;2023-05-07T04:40:43;9.77;;;8.87;;
1785;SDS011;890;48.158;11.540;2023-05-07T04:43:09;10.17;;;8.67;;
1785;SDS011;890;48.158;11.540;2023-05-07T04:45:35;8.93;;;8.03;;
1785;SDS011;890;48.158;11.540;2023-05-07T04:48:01;9.40;;;8.50;;
1785;SDS011;890;48.158;11.540;2023-05-07T04:50:27;8.60;;;7.80;;
1785;SDS011;890;48.158;11.540;2023-05-07T04:52:53;7.93;;;7.30;;
1785;SDS011;890;48.158;11.540;2023-05-07T04:55:18;9.13;;;8.00;;
1785;SDS011;890;48.158;11.540;2023-05-07T04:57:44;8.67;;;7.77;;
1785;SDS011;890;48.158;11.540;2023-05-07T05:00:10;8.53;;;7.73;;
1785;SDS011;890;48.158;11.540;2023-05-07T05:02:39;8.03;;;7.30;;
1785;SDS011;890;48.158;11.540;2023-05-07T05:05:04;7.90;;;7.10;;
1785;SDS011;890;48.158;11.540;2023-05-07T05:07:30;8.40;;;7.63;;
1785;SDS011;890;48.158;11.540;2023-05-07T05:09:56;8.00;;;7.20;;
1785;SDS011;890;48.158;11.540;2023-05-07T05:12:22;7.63;;;6.80;;
1785;SDS011;890;48.158;11.540;2023-05-07T05:14:48;7.57;;;6.73;;
1785;SDS011;890;48.158;11.540;2023-05-07T05:17:13;7.67;;;6.97;;
1785;SDS011;890;48.158;11.540;2023-05-07T05:19:39;7.73;;;7.03;;
1785;SDS011;890;48.158;11.540;2023-05-07T05:22:04;8.00;;;7.13;;
1785;SDS011;890;48.158;11.540;2023-05-07T05:24:30;8.67;;;7.63;;
1785;SDS011;890;48.158;11.540;2023-05-07T05:26:56;7.20;;;6.60;;
1785;SDS011;890;48.158;11.540;2023-05-07T05:29:22;6.87;;;6.17;;
1785;SDS011;890;48.158;11.540;2023-05-07T05:31:47;8.53;;;7.37;;
1785;SDS011;890;48.158;11.540;2023-05-07T05:34:13;7.47;;;6.77;;
1785;SDS011;890;48.158;11.540;2023-05-07T05:36:39;7.07;;;6.10;;
1785;SDS011;890;48.158;11.540;2023-05-07T05:39:05;8.27;;;7.40;;
1785;SDS011;890;48.158;11.540;2023-05-07T05:41:31;8.03;;;7.23;;
1785;SDS011;890;48.158;11.540;2023-05-07T05:43:57;8.00;;;7.23;;
1785;SDS011;890;48.158;11.540;2023-05-07T05:46:22;6.67;;;6.03;;
1785;SDS011;890;48.158;11.540;2023-05-07T05:48:48;7.07;;;6.40;;
1785;SDS011;890;48.158;11.540;2023-05-07T05:51:13;7.27;;;6.67;;
1785;SDS011;890;48.158;11.540;2023-05-07T05:53:39;6.37;;;5.87;;
1785;SDS011;890;48.158;11.540;2023-05-07T05:56:04;7.20;;;6.10;;
1785;SDS011;890;48.158;11.540;2023-05-07T05:58:30;6.13;;;5.63;;
1785;SDS011;890;48.158;11.540;2023-05-07T06:00:56;8.03;;;5.33;;
1785;SDS011;890;48.158;11.540;2023-05-07T06:03:23;6.93;;;6.33;;
1785;SDS011;890;48.158;11.540;2023-05-07T06:05:48;6.70;;;6.20;;
1785;SDS011;890;48.158;11.540;2023-05-07T06:08:14;9.70;;;7.60;;
1785;SDS011;890;48.158;11.540;2023-05-07T06:10:39;6.70;;;6.10;;
1785;SDS011;890;48.158;11.540;2023-05-07T06:13:05;6.60;;;6.00;;
1785;SDS011;890;48.158;11.540;2023-05-07T06:15:31;7.40;;;6.07;;
1785;SDS011;890;48.158;11.540;2023-05-07T06:17:56;6.57;;;5.97;;
1785;SDS011;890;48.158;11.540;2023-05-07T06:20:22;6.00;;;5.50;;
1785;SDS011;890;48.158;11.540;2023-05-07T06:22:48;6.83;;;6.23;;
1785;SDS011;890;48.158;11.540;2023-05-07T06:25:14;6.27;;;5.67;;
1785;SDS011;890;48.158;11.540;2023-05-07T06:27:39;5.93;;;5.43;;
1785;SDS011;890;48.158;11.540;2023-05-07T06:30:05;6.90;;;5.50;;
1785;SDS011;890;48.158;11.540;2023-05-07T06:32:32;5.57;;;4.90;;
1785;SDS011;890;48.158;11.540;2023-05-07T06:34:57;5.47;;;4.97;;
1785;SDS011;890;48.158;11.540;2023-05-07T06:37:23;5.60;;;5.13;;
1785;SDS011;890;48.158;11.540;2023-05-07T06:39:48;5.97;;;5.17;;
1785;SDS011;890;48.158;11.540;2023-05-07T06:42:14;5.17;;;4.70;;
1785;SDS011;890;48.158;11.540;2023-05-07T06:44:40;5.80;;;5.27;;
1785;SDS011;890;48.158;11.540;2023-05-07T06:47:05;5.40;;;4.30;;
1785;SDS011;890;48.158;11.540;2023-05-07T06:49:31;5.30;;;4.30;;
1785;SDS011;890;48.158;11.540;2023-05-07T06:51:57;4.70;;;4.30;;
1785;SDS011;890;48.158;11.540;2023-05-07T06:54:23;4.80;;;4.40;;
1785;SDS011;890;48.158;11.540;2023-05-07T06:56:48;4.40;;;4.00;;
1785;SDS011;890;48.158;11.540;2023-05-07T06:59:15;5.77;;;4.53;;
1785;SDS011;890;48.158;11.540;2023-05-07T07:01:41;4.60;;;4.17;;
1785;SDS011;890;48.158;11.540;2023-05-07T07:04:07;5.50;;;5.00;;
1785;SDS011;890;48.158;11.540;2023-05-07T07:06:32;5.10;;;4.63;;
1785;SDS011;890;48.158;11.540;2023-05-07T07:08:58;6.10;;;4.40;;
1785;SDS011;890;48.158;11.540;2023-05-07T07:11:24;6.00;;;4.47;;
1785;SDS011;890;48.158;11.540;2023-05-07T07:13:50;4.80;;;4.37;;
1785;SDS011;890;48.158;11.540;2023-05-07T07:16:16;4.93;;;4.53;;
1785;SDS011;890;48.158;11.540;2023-05-07T07:18:41;4.80;;;4.40;;
1785;SDS011;890;48.158;11.540;2023-05-07T07:21:07;5.30;;;4.80;;
1785;SDS011;890;48.158;11.540;2023-05-07T07:23:33;4.77;;;4.37;;
1785;SDS011;890;48.158;11.540;2023-05-07T07:25:58;4.77;;;4.47;;
1785;SDS011;890;48.158;11.540;2023-05-07T07:28:24;4.50;;;4.10;;
1785;SDS011;890;48.158;11.540;2023-05-07T07:30:50;5.93;;;4.23;;
1785;SDS011;890;48.158;11.540;2023-05-07T07:33:15;4.33;;;4.00;;
1785;SDS011;890;48.158;11.540;2023-05-07T07:35:41;4.87;;;4.47;;
1785;SDS011;890;48.158;11.540;2023-05-07T07:38:07;4.70;;;4.20;;
1785;SDS011;890;48.158;11.540;2023-05-07T07:40:34;4.37;;;4.07;;
1785;SDS011;890;48.158;11.540;2023-05-07T07:43:00;4.20;;;3.90;;
1785;SDS011;890;48.158;11.540;2023-05-07T07:45:26;4.20;;;3.80;;
1785;SDS011;890;48.158;11.540;2023-05-07T07:47:52;4.93;;;4.37;;
1785;SDS011;890;48.158;11.540;2023-05-07T07:50:17;5.47;;;4.47;;
1785;SDS011;890;48.158;11.540;2023-05-07T07:52:43;5.10;;;4.70;;
1785;SDS011;890;48.158;11.540;2023-05-07T07:55:09;6.10;;;4.57;;
1785;SDS011;890;48.158;11.540;2023-05-07T07:57:35;5.00;;;4.60;;
1785;SDS011;890;48.158;11.540;2023-05-07T08:00:00;4.30;;;3.90;;
1785;SDS011;890;48.158;11.540;2023-05-07T08:02:26;4.97;;;4.53;;
1785;SDS011;890;48.158;11.540;2023-05-07T08:04:52;4.53;;;4.13;;
1785;SDS011;890;48.158;11.540;2023-05-07T08:07:17;7.07;;;4.50;;
1785;SDS011;890;48.158;11.540;2023-05-07T08:09:45;11.57;;;6.23;;
1785;SDS011;890;48.158;11.540;2023-05-07T08:12:11;5.50;;;4.77;;
1785;SDS011;890;48.158;11.540;2023-05-07T08:14:37;5.00;;;4.50;;
1785;SDS011;890;48.158;11.540;2023-05-07T08:17:02;4.90;;;4.50;;
1785;SDS011;890;48.158;11.540;2023-05-07T08:19:28;5.73;;;4.97;;
1785;SDS011;890;48.158;11.540;2023-05-07T08:21:54;5.13;;;4.63;;
1785;SDS011;890;48.158;11.540;2023-05-07T08:24:20;5.50;;;5.00;;
1785;SDS011;890;48.158;11.540;2023-05-07T08:26:46;4.57;;;4.17;;
1785;SDS011;890;48.158;11.540;2023-05-07T08:29:11;4.70;;;4.30;;
1785;SDS011;890;48.158;11.540;2023-05-07T08:31:37;6.63;;;5.03;;
1785;SDS011;890;48.158;11.540;2023-05-07T08:34:05;4.50;;;4.10;;
1785;SDS011;890;48.158;11.540;2023-05-07T08:36:31;4.10;;;3.60;;
1785;SDS011;890;48.158;11.540;2023-05-07T08:38:57;5.30;;;4.30;;
1785;SDS011;890;48.158;11.540;2023-05-07T08:41:22;4.20;;;3.80;;
1785;SDS011;890;48.158;11.540;2023-05-07T08:43:49;4.70;;;4.30;;
1785;SDS011;890;48.158;11.540;2023-05-07T08:46:19;4.47;;;4.17;;
1785;SDS011;890;48.158;11.540;2023-05-07T08:48:49;5.27;;;4.53;;
1785;SDS011;890;48.158;11.540;2023-05-07T08:51:18;6.13;;;4.30;;
1785;SDS011;890;48.158;11.540;2023-05-07T08:53:46;4.73;;;4.20;;
1785;SDS011;890;48.158;11.540;2023-05-07T08:56:15;5.10;;;4.13;;
1785;SDS011;890;48.158;11.540;2023-05-07T08:58:42;4.80;;;4.17;;
1785;SDS011;890;48.158;11.540;2023-05-07T09:01:09;3.70;;;3.40;;
1785;SDS011;890;48.158;11.540;2023-05-07T09:03:38;5.20;;;4.40;;
1785;SDS011;890;48.158;11.540;2023-05-07T09:06:05;5.17;;;4.67;;
1785;SDS011;890;48.158;11.540;2023-05-07T09:08:32;4.00;;;3.70;;
1785;SDS011;890;48.158;11.540;2023-05-07T09:10:59;4.80;;;3.87;;
1785;SDS011;890;48.158;11.540;2023-05-07T09:13:25;4.10;;;3.80;;
1785;SDS011;890;48.158;11.540;2023-05-07T09:15:51;3.70;;;3.40;;
1785;SDS011;890;48.158;11.540;2023-05-07T09:18:17;3.77;;;3.47;;
1785;SDS011;890;48.158;11.540;2023-05-07T09:20:43;6.43;;;4.00;;
1785;SDS011;890;48.158;11.540;2023-05-07T09:23:08;4.50;;;4.10;;
1785;SDS011;890;48.158;11.540;2023-05-07T09:25:35;4.27;;;3.97;;
1785;SDS011;890;48.158;11.540;2023-05-07T09:28:02;4.23;;;3.83;;
1785;SDS011;890;48.158;11.540;2023-05-07T09:30:29;4.63;;;3.43;;
1785;SDS011;890;48.158;11.540;2023-05-07T09:32:58;3.80;;;3.50;;
1785;SDS011;890;48.158;11.540;2023-05-07T09:35:25;3.93;;;3.30;;
1785;SDS011;890;48.158;11.540;2023-05-07T09:37:57;5.20;;;3.83;;
1785;SDS011;890;48.158;11.540;2023-05-07T09:40:24;2.87;;;2.67;;
1785;SDS011;890;48.158;11.540;2023-05-07T09:42:52;3.27;;;2.97;;
1785;SDS011;890;48.158;11.540;2023-05-07T09:45:25;3.70;;;3.40;;
1785;SDS011;890;48.158;11.540;2023-05-07T09:47:53;3.13;;;2.77;;
1785;SDS011;890;48.158;11.540;2023-05-07T09:50:29;3.33;;;2.93;;
1785;SDS011;890;48.158;11.540;2023-05-07T09:53:00;2.57;;;2.37;;
1785;SDS011;890;48.158;11.540;2023-05-07T09:55:28;3.50;;;2.90;;
1785;SDS011;890;48.158;11.540;2023-05-07T09:57:53;3.40;;;2.87;;
1785;SDS011;890;48.158;11.540;2023-05-07T10:00:22;3.73;;;3.00;;
1785;SDS011;890;48.158;11.540;2023-05-07T10:02:49;3.77;;;2.80;;
1785;SDS011;890;48.158;11.540;2023-05-07T10:05:18;4.30;;;3.00;;
1785;SDS011;890;48.158;11.540;2023-05-07T10:07:46;3.10;;;2.80;;
1785;SDS011;890;48.158;11.540;2023-05-07T10:10:12;2.80;;;2.60;;
1785;SDS011;890;48.158;11.540;2023-05-07T10:12:39;2.50;;;2.30;;
1785;SDS011;890;48.158;11.540;2023-05-07T10:15:06;3.30;;;2.40;;
1785;SDS011;890;48.158;11.540;2023-05-07T10:17:36;5.20;;;2.20;;
1785;SDS011;890;48.158;11.540;2023-05-07T10:20:03;2.80;;;2.60;;
1785;SDS011;890;48.158;11.540;2023-05-07T10:22:33;3.10;;;2.40;;
1785;SDS011;890;48.158;11.540;2023-05-07T10:25:04;2.63;;;2.43;;
1785;SDS011;890;48.158;11.540;2023-05-07T10:27:36;2.80;;;2.40;;
1785;SDS011;890;48.158;11.540;2023-05-07T10:30:07;3.00;;;2.80;;
1785;SDS011;890;48.158;11.540;2023-05-07T10:32:49;2.80;;;2.60;;
1785;SDS011;890;48.158;11.540;2023-05-07T10:35:17;6.97;;;4.20;;
1785;SDS011;890;48.158;11.540;2023-05-07T10:37:46;3.53;;;3.23;;
1785;SDS011;890;48.158;11.540;2023-05-07T10:40:13;2.60;;;2.40;;
1785;SDS011;890;48.158;11.540;2023-05-07T10:42:38;2.77;;;2.57;;
1785;SDS011;890;48.158;11.540;2023-05-07T10:45:17;3.93;;;2.70;;
1785;SDS011;890;48.158;11.540;2023-05-07T10:50:34;2.57;;;2.23;;
1785;SDS011;890;48.158;11.540;2023-05-07T10:53:20;2.63;;;2.23;;
1785;SDS011;890;48.158;11.540;2023-05-07T10:55:48;2.40;;;2.13;;
1785;SDS011;890;48.158;11.540;2023-05-07T11:00:46;4.40;;;2.10;;
1785;SDS011;890;48.158;11.540;2023-05-07T11:03:12;2.40;;;2.20;;
1785;SDS011;890;48.158;11.540;2023-05-07T11:05:39;2.30;;;2.10;;
1785;SDS011;890;48.158;11.540;2023-05-07T11:08:06;5.80;;;2.33;;
1785;SDS011;890;48.158;11.540;2023-05-07T11:10:49;2.17;;;1.97;;
1785;SDS011;890;48.158;11.540;2023-05-07T11:13:40;3.20;;;2.83;;
1785;SDS011;890;48.158;11.540;2023-05-07T11:16:20;7.37;;;2.77;;
1785;SDS011;890;48.158;11.540;2023-05-07T11:18:54;3.10;;;2.90;;
1785;SDS011;890;48.158;11.540;2023-05-07T11:21:33;3.00;;;2.80;;
1785;SDS011;890;48.158;11.540;2023-05-07T11:23:59;3.80;;;3.33;;
1785;SDS011;890;48.158;11.540;2023-05-07T11:26:26;3.97;;;3.00;;
1785;SDS011;890;48.158;11.540;2023-05-07T11:28:53;4.10;;;3.70;;
1785;SDS011;890;48.158;11.540;2023-05-07T11:31:20;3.43;;;3.13;;
1785;SDS011;890;48.158;11.540;2023-05-07T11:33:48;4.23;;;3.13;;
1785;SDS011;890;48.158;11.540;2023-05-07T11:36:14;3.80;;;3.20;;
1785;SDS011;890;48.158;11.540;2023-05-07T11:38:40;4.63;;;3.30;;
1785;SDS011;890;48.158;11.540;2023-05-07T11:41:06;6.70;;;3.07;;
1785;SDS011;890;48.158;11.540;2023-05-07T11:43:33;3.33;;;3.03;;
1785;SDS011;890;48.158;11.540;2023-05-07T11:46:10;5.00;;;3.53;;
1785;SDS011;890;48.158;11.540;2023-05-07T11:48:37;3.10;;;2.80;;
1785;SDS011;890;48.158;11.540;2023-05-07T11:51:04;3.17;;;2.80;;
1785;SDS011;890;48.158;11.540;2023-05-07T11:53:37;2.90;;;2.70;;
1785;SDS011;890;48.158;11.540;2023-05-07T11:56:11;3.70;;;3.00;;
1785;SDS011;890;48.158;11.540;2023-05-07T11:58:39;3.50;;;3.20;;
1785;SDS011;890;48.158;11.540;2023-05-07T12:01:07;2.87;;;2.67;;
1785;SDS011;890;48.158;11.540;2023-05-07T12:03:34;3.30;;;3.00;;
1785;SDS011;890;48.158;11.540;2023-05-07T12:06:02;4.00;;;3.00;;
1785;SDS011;890;48.158;11.540;2023-05-07T12:08:30;3.17;;;2.97;;
1785;SDS011;890;48.158;11.540;2023-05-07T12:10:56;4.50;;;2.80;;
1785;SDS011;890;48.158;11.540;2023-05-07T12:13:22;4.43;;;2.70;;
1785;SDS011;890;48.158;11.540;2023-05-07T12:15:53;3.10;;;2.80;;
1785;SDS011;890;48.158;11.540;2023-05-07T12:18:20;4.13;;;2.83;;
1785;SDS011;890;48.158;11.540;2023-05-07T12:20:47;3.07;;;2.80;;
1785;SDS011;890;48.158;11.540;2023-05-07T12:23:13;3.40;;;3.10;;
1785;SDS011;890;48.158;11.540;2023-05-07T12:25:40;3.70;;;3.37;;
1785;SDS011;890;48.158;11.540;2023-05-07T12:28:12;3.53;;;3.00;;
1785;SDS011;890;48.158;11.540;2023-05-07T12:30:40;3.73;;;3.10;;
1785;SDS011;890;48.158;11.540;2023-05-07T12:33:06;3.00;;;2.80;;
1785;SDS011;890;48.158;11.540;2023-05-07T12:35:36;3.40;;;3.10;;
1785;SDS011;890;48.158;11.540;2023-05-07T12:38:07;3.40;;;3.10;;
1785;SDS011;890;48.158;11.540;2023-05-07T12:40:37;3.37;;;3.07;;
1785;SDS011;890;48.158;11.540;2023-05-07T12:43:08;3.60;;;3.30;;
1785;SDS011;890;48.158;11.540;2023-05-07T12:45:44;3.27;;;2.97;;
1785;SDS011;890;48.158;11.540;2023-05-07T12:48:11;4.00;;;2.83;;
1785;SDS011;890;48.158;11.540;2023-05-07T12:50:37;3.43;;;3.10;;
1785;SDS011;890;48.158;11.540;2023-05-07T12:53:03;3.00;;;2.80;;
1785;SDS011;890;48.158;11.540;2023-05-07T12:55:31;3.13;;;2.90;;
1785;SDS011;890;48.158;11.540;2023-05-07T12:58:00;2.90;;;2.70;;
1785;SDS011;890;48.158;11.540;2023-05-07T13:03:00;6.97;;;4.40;;
1785;SDS011;890;48.158;11.540;2023-05-07T13:05:25;3.40;;;3.20;;
1785;SDS011;890;48.158;11.540;2023-05-07T13:07:57;2.83;;;2.63;;
1785;SDS011;890;48.158;11.540;2023-05-07T13:10:23;5.43;;;3.50;;
1785;SDS011;890;48.158;11.540;2023-05-07T13:12:49;3.70;;;3.40;;
1785;SDS011;890;48.158;11.540;2023-05-07T13:15:15;3.27;;;2.40;;
1785;SDS011;890;48.158;11.540;2023-05-07T13:17:42;3.30;;;2.73;;
1785;SDS011;890;48.158;11.540;2023-05-07T13:20:10;2.80;;;2.50;;
1785;SDS011;890;48.158;11.540;2023-05-07T13:22:37;2.67;;;2.40;;
1785;SDS011;890;48.158;11.540;2023-05-07T13:25:03;2.53;;;2.33;;
1785;SDS011;890;48.158;11.540;2023-05-07T13:27:29;4.40;;;2.50;;
1785;SDS011;890;48.158;11.540;2023-05-07T13:29:55;2.60;;;2.40;;
1785;SDS011;890;48.158;11.540;2023-05-07T13:32:21;3.33;;;2.40;;
1785;SDS011;890;48.158;11.540;2023-05-07T13:34:47;3.00;;;2.70;;
1785;SDS011;890;48.158;11.540;2023-05-07T13:37:13;2.93;;;2.63;;
1785;SDS011;890;48.158;11.540;2023-05-07T13:39:38;2.70;;;2.50;;
1785;SDS011;890;48.158;11.540;2023-05-07T13:42:04;3.10;;;2.80;;
1785;SDS011;890;48.158;11.540;2023-05-07T13:44:29;3.67;;;2.40;;
1785;SDS011;890;48.158;11.540;2023-05-07T13:46:55;3.40;;;3.00;;
1785;SDS011;890;48.158;11.540;2023-05-07T13:49:20;3.10;;;2.80;;
1785;SDS011;890;48.158;11.540;2023-05-07T13:51:46;2.97;;;2.63;;
1785;SDS011;890;48.158;11.540;2023-05-07T13:54:12;3.07;;;2.73;;
1785;SDS011;890;48.158;11.540;2023-05-07T13:56:37;3.20;;;3.00;;
1785;SDS011;890;48.158;11.540;2023-05-07T13:59:03;3.03;;;2.67;;
1785;SDS011;890;48.158;11.540;2023-05-07T14:01:28;3.37;;;2.83;;
1785;SDS011;890;48.158;11.540;2023-05-07T14:03:55;3.30;;;3.00;;
1785;SDS011;890;48.158;11.540;2023-05-07T14:06:22;2.93;;;2.73;;
1785;SDS011;890;48.158;11.540;2023-05-07T14:08:47;3.50;;;3.20;;
1785;SDS011;890;48.158;11.540;2023-05-07T14:11:13;3.17;;;2.87;;
1785;SDS011;890;48.158;11.540;2023-05-07T14:13:38;3.20;;;2.90;;
1785;SDS011;890;48.158;11.540;2023-05-07T14:16:04;3.17;;;2.87;;
1785;SDS011;890;48.158;11.540;2023-05-07T14:18:30;3.30;;;3.00;;
1785;SDS011;890;48.158;11.540;2023-05-07T14:20:55;3.50;;;3.20;;
1785;SDS011;890;48.158;11.540;2023-05-07T14:23:21;3.17;;;2.87;;
1785;SDS011;890;48.158;11.540;2023-05-07T14:25:51;3.37;;;3.07;;
1785;SDS011;890;48.158;11.540;2023-05-07T14:28:21;4.10;;;3.00;;
1785;SDS011;890;48.158;11.540;2023-05-07T14:30:47;3.10;;;2.90;;
1785;SDS011;890;48.158;11.540;2023-05-07T14:33:13;3.67;;;3.20;;
1785;SDS011;890;48.158;11.540;2023-05-07T14:35:38;4.77;;;3.80;;
1785;SDS011;890;48.158;11.540;2023-05-07T14:38:04;4.10;;;3.70;;
1785;SDS011;890;48.158;11.540;2023-05-07T14:40:29;4.20;;;3.90;;
1785;SDS011;890;48.158;11.540;2023-05-07T14:42:55;4.20;;;3.80;;
1785;SDS011;890;48.158;11.540;2023-05-07T14:45:22;4.97;;;4.57;;
1785;SDS011;890;48.158;11.540;2023-05-07T14:47:47;4.40;;;4.00;;
1785;SDS011;890;48.158;11.540;2023-05-07T14:50:13;4.03;;;3.07;;
1785;SDS011;890;48.158;11.540;2023-05-07T14:52:39;3.97;;;3.63;;
1785;SDS011;890;48.158;11.540;2023-05-07T14:55:05;6.33;;;3.80;;
1785;SDS011;890;48.158;11.540;2023-05-07T14:57:30;4.07;;;3.77;;
1785;SDS011;890;48.158;11.540;2023-05-07T14:59:59;3.63;;;3.33;;
1785;SDS011;890;48.158;11.540;2023-05-07T15:02:27;3.93;;;3.63;;
1785;SDS011;890;48.158;11.540;2023-05-07T15:04:52;4.17;;;3.77;;
1785;SDS011;890;48.158;11.540;2023-05-07T15:07:18;4.00;;;3.70;;
1785;SDS011;890;48.158;11.540;2023-05-07T15:09:44;4.33;;;3.93;;
1785;SDS011;890;48.158;11.540;2023-05-07T15:12:10;4.30;;;3.90;;
1785;SDS011;890;48.158;11.540;2023-05-07T15:14:37;4.50;;;4.17;;